sensor_id;sensor_type;location;lat;lon;timestamp;P1;durP1;ratioP1;P2;durP2;ratioP2
23802;SDS011;12082;51.786;6.018;2024-03-22T00:00:54;51.10;;;23.20;;
23802;SDS011;12082;51.786;6.018;2024-03-22T00:03:20;52.87;;;24.80;;
23802;SDS011;12082;51.786;6.018;2024-03-22T00:05:46;48.13;;;23.07;;
23802;SDS011;12082;51.786;6.018;2024-03-22T00:08:12;46.97;;;22.40;;
23802;SDS011;12082;51.786;6.018;2024-03-22T00:10:38;48.07;;;23.10;;
23802;SDS011;12082;51.786;6.018;2024-03-22T00:13:04;61.97;;;24.50;;
23802;SDS011;12082;51.786;6.018;2024-03-22T00:15:30;50.70;;;24.13;;
23802;SDS011;12082;51.786;6.018;2024-03-22T00:17:56;53.27;;;22.60;;
23802;SDS011;12082;51.786;6.018;2024-03-22T00:20:22;53.97;;;24.27;;
23802;SDS011;12082;51.786;6.018;2024-03-22T00:22:48;53.20;;;24.03;;
23802;SDS011;12082;51.786;6.018;2024-03-22T00:25:14;50.03;;;23.57;;
23802;SDS011;12082;51.786;6.018;2024-03-22T00:27:40;48.20;;;25.13;;
23802;SDS011;12082;51.786;6.018;2024-03-22T00:30:06;55.93;;;24.20;;
23802;SDS011;12082;51.786;6.018;2024-03-22T00:32:32;52.23;;;24.30;;
23802;SDS011;12082;51.786;6.018;2024-03-22T00:34:58;46.00;;;24.07;;
23802;SDS011;12082;51.786;6.018;2024-03-22T00:37:24;51.97;;;24.10;;
23802;SDS011;12082;51.786;6.018;2024-03-22T00:39:50;58.60;;;25.37;;
23802;SDS011;12082;51.786;6.018;2024-03-22T00:42:16;53.77;;;25.00;;
23802;SDS011;12082;51.786;6.018;2024-03-22T00:44:42;56.17;;;25.07;;
23802;SDS011;12082;51.786;6.018;2024-03-22T00:47:08;59.77;;;25.77;;
23802;SDS011;12082;51.786;6.018;2024-03-22T00:49:34;56.17;;;24.17;;
23802;SDS011;12082;51.786;6.018;2024-03-22T00:52:00;52.60;;;23.93;;
23802;SDS011;12082;51.786;6.018;2024-03-22T00:54:26;58.63;;;26.73;;
23802;SDS011;12082;51.786;6.018;2024-03-22T00:56:52;51.97;;;25.77;;
23802;SDS011;12082;51.786;6.018;2024-03-22T00:59:18;56.83;;;26.27;;
23802;SDS011;12082;51.786;6.018;2024-03-22T01:01:44;56.13;;;25.63;;
23802;SDS011;12082;51.786;6.018;2024-03-22T01:04:10;50.63;;;23.60;;
23802;SDS011;12082;51.786;6.018;2024-03-22T01:06:36;49.93;;;24.83;;
23802;SDS011;12082;51.786;6.018;2024-03-22T01:09:02;52.27;;;25.53;;
23802;SDS011;12082;51.786;6.018;2024-03-22T01:11:29;56.40;;;26.70;;
23802;SDS011;12082;51.786;6.018;2024-03-22T01:13:55;65.53;;;27.93;;
23802;SDS011;12082;51.786;6.018;2024-03-22T01:16:21;49.10;;;24.53;;
23802;SDS011;12082;51.786;6.018;2024-03-22T01:18:47;54.93;;;26.57;;
23802;SDS011;12082;51.786;6.018;2024-03-22T01:21:13;62.80;;;27.50;;
23802;SDS011;12082;51.786;6.018;2024-03-22T01:23:39;55.53;;;26.10;;
23802;SDS011;12082;51.786;6.018;2024-03-22T01:26:05;50.50;;;25.77;;
23802;SDS011;12082;51.786;6.018;2024-03-22T01:28:31;61.17;;;27.10;;
23802;SDS011;12082;51.786;6.018;2024-03-22T01:30:57;54.87;;;27.23;;
23802;SDS011;12082;51.786;6.018;2024-03-22T01:33:23;57.60;;;26.50;;
23802;SDS011;12082;51.786;6.018;2024-03-22T01:35:49;59.57;;;27.33;;
23802;SDS011;12082;51.786;6.018;2024-03-22T01:38:15;55.03;;;26.73;;
23802;SDS011;12082;51.786;6.018;2024-03-22T01:40:41;60.30;;;26.63;;
23802;SDS011;12082;51.786;6.018;2024-03-22T01:43:07;54.60;;;25.77;;
23802;SDS011;12082;51.786;6.018;2024-03-22T01:45:33;55.97;;;25.50;;
23802;SDS011;12082;51.786;6.018;2024-03-22T01:47:59;54.57;;;27.07;;
23802;SDS011;12082;51.786;6.018;2024-03-22T01:50:26;54.80;;;25.87;;
23802;SDS011;12082;51.786;6.018;2024-03-22T01:52:52;59.00;;;26.80;;
23802;SDS011;12082;51.786;6.018;2024-03-22T01:55:18;62.80;;;28.03;;
23802;SDS011;12082;51.786;6.018;2024-03-22T01:57:44;60.83;;;26.03;;
23802;SDS011;12082;51.786;6.018;2024-03-22T02:00:10;55.70;;;27.17;;
23802;SDS011;12082;51.786;6.018;2024-03-22T02:02:37;56.83;;;27.90;;
23802;SDS011;12082;51.786;6.018;2024-03-22T02:05:12;59.17;;;26.53;;
23802;SDS011;12082;51.786;6.018;2024-03-22T02:07:38;56.50;;;26.43;;
23802;SDS011;12082;51.786;6.018;2024-03-22T02:10:04;53.97;;;26.27;;
23802;SDS011;12082;51.786;6.018;2024-03-22T02:12:32;59.40;;;25.87;;
23802;SDS011;12082;51.786;6.018;2024-03-22T02:14:59;56.70;;;27.63;;
23802;SDS011;12082;51.786;6.018;2024-03-22T02:17:24;55.60;;;27.57;;
23802;SDS011;12082;51.786;6.018;2024-03-22T02:19:50;57.57;;;26.23;;
23802;SDS011;12082;51.786;6.018;2024-03-22T02:22:16;54.73;;;26.33;;
23802;SDS011;12082;51.786;6.018;2024-03-22T02:24:42;51.27;;;26.27;;
23802;SDS011;12082;51.786;6.018;2024-03-22T02:27:08;58.07;;;27.90;;
23802;SDS011;12082;51.786;6.018;2024-03-22T02:29:34;59.10;;;28.93;;
23802;SDS011;12082;51.786;6.018;2024-03-22T02:32:00;63.70;;;26.43;;
23802;SDS011;12082;51.786;6.018;2024-03-22T02:34:26;57.10;;;27.73;;
23802;SDS011;12082;51.786;6.018;2024-03-22T02:36:52;62.37;;;27.97;;
23802;SDS011;12082;51.786;6.018;2024-03-22T02:39:18;56.47;;;26.97;;
23802;SDS011;12082;51.786;6.018;2024-03-22T02:41:44;61.93;;;27.40;;
23802;SDS011;12082;51.786;6.018;2024-03-22T02:44:10;53.73;;;26.60;;
23802;SDS011;12082;51.786;6.018;2024-03-22T02:46:36;54.40;;;26.43;;
23802;SDS011;12082;51.786;6.018;2024-03-22T02:49:02;61.97;;;28.57;;
23802;SDS011;12082;51.786;6.018;2024-03-22T02:51:28;59.77;;;26.87;;
23802;SDS011;12082;51.786;6.018;2024-03-22T02:53:54;51.03;;;26.33;;
23802;SDS011;12082;51.786;6.018;2024-03-22T02:56:20;53.47;;;26.80;;
23802;SDS011;12082;51.786;6.018;2024-03-22T02:58:46;51.77;;;25.73;;
23802;SDS011;12082;51.786;6.018;2024-03-22T03:01:12;54.40;;;27.20;;
23802;SDS011;12082;51.786;6.018;2024-03-22T03:03:38;61.17;;;26.80;;
23802;SDS011;12082;51.786;6.018;2024-03-22T03:06:04;52.47;;;25.47;;
23802;SDS011;12082;51.786;6.018;2024-03-22T03:08:30;58.60;;;26.90;;
23802;SDS011;12082;51.786;6.018;2024-03-22T03:10:56;54.37;;;26.10;;
23802;SDS011;12082;51.786;6.018;2024-03-22T03:13:22;53.57;;;25.60;;
23802;SDS011;12082;51.786;6.018;2024-03-22T03:15:48;52.37;;;26.83;;
23802;SDS011;12082;51.786;6.018;2024-03-22T03:18:14;59.30;;;28.07;;
23802;SDS011;12082;51.786;6.018;2024-03-22T03:20:40;53.40;;;25.33;;
23802;SDS011;12082;51.786;6.018;2024-03-22T03:23:06;53.03;;;26.27;;
23802;SDS011;12082;51.786;6.018;2024-03-22T03:25:33;47.67;;;25.43;;
23802;SDS011;12082;51.786;6.018;2024-03-22T03:27:59;59.27;;;28.23;;
23802;SDS011;12082;51.786;6.018;2024-03-22T03:30:25;48.07;;;25.47;;
23802;SDS011;12082;51.786;6.018;2024-03-22T03:32:51;53.43;;;27.00;;
23802;SDS011;12082;51.786;6.018;2024-03-22T03:35:17;55.60;;;25.57;;
23802;SDS011;12082;51.786;6.018;2024-03-22T03:37:43;51.37;;;26.60;;
23802;SDS011;12082;51.786;6.018;2024-03-22T03:40:09;52.50;;;25.90;;
23802;SDS011;12082;51.786;6.018;2024-03-22T03:42:35;54.90;;;26.43;;
23802;SDS011;12082;51.786;6.018;2024-03-22T03:45:01;48.57;;;26.47;;
23802;SDS011;12082;51.786;6.018;2024-03-22T03:47:27;52.53;;;25.20;;
23802;SDS011;12082;51.786;6.018;2024-03-22T03:49:53;51.50;;;25.83;;
23802;SDS011;12082;51.786;6.018;2024-03-22T03:52:19;47.77;;;24.23;;
23802;SDS011;12082;51.786;6.018;2024-03-22T03:54:45;52.80;;;26.07;;
23802;SDS011;12082;51.786;6.018;2024-03-22T03:57:11;52.23;;;27.53;;
23802;SDS011;12082;51.786;6.018;2024-03-22T03:59:37;53.53;;;26.27;;
23802;SDS011;12082;51.786;6.018;2024-03-22T04:02:03;49.53;;;25.00;;
23802;SDS011;12082;51.786;6.018;2024-03-22T04:04:29;54.20;;;25.50;;
23802;SDS011;12082;51.786;6.018;2024-03-22T04:06:55;50.90;;;25.20;;
23802;SDS011;12082;51.786;6.018;2024-03-22T04:09:21;54.87;;;26.40;;
23802;SDS011;12082;51.786;6.018;2024-03-22T04:11:47;53.17;;;26.03;;
23802;SDS011;12082;51.786;6.018;2024-03-22T04:14:13;49.47;;;26.13;;
23802;SDS011;12082;51.786;6.018;2024-03-22T04:16:39;51.87;;;26.00;;
23802;SDS011;12082;51.786;6.018;2024-03-22T04:19:04;48.70;;;26.50;;
23802;SDS011;12082;51.786;6.018;2024-03-22T04:21:31;57.87;;;27.33;;
23802;SDS011;12082;51.786;6.018;2024-03-22T04:23:56;52.43;;;26.63;;
23802;SDS011;12082;51.786;6.018;2024-03-22T04:26:22;45.27;;;24.40;;
23802;SDS011;12082;51.786;6.018;2024-03-22T04:28:48;44.93;;;23.67;;
23802;SDS011;12082;51.786;6.018;2024-03-22T04:31:15;46.10;;;25.83;;
23802;SDS011;12082;51.786;6.018;2024-03-22T04:33:41;49.47;;;26.73;;
23802;SDS011;12082;51.786;6.018;2024-03-22T04:36:07;49.87;;;24.67;;
23802;SDS011;12082;51.786;6.018;2024-03-22T04:38:35;49.00;;;25.60;;
23802;SDS011;12082;51.786;6.018;2024-03-22T04:41:01;50.87;;;26.67;;
23802;SDS011;12082;51.786;6.018;2024-03-22T04:43:27;45.87;;;25.07;;
23802;SDS011;12082;51.786;6.018;2024-03-22T04:45:54;48.47;;;25.23;;
23802;SDS011;12082;51.786;6.018;2024-03-22T04:48:20;46.27;;;25.13;;
23802;SDS011;12082;51.786;6.018;2024-03-22T04:50:50;44.50;;;23.90;;
23802;SDS011;12082;51.786;6.018;2024-03-22T04:53:17;42.47;;;24.43;;
23802;SDS011;12082;51.786;6.018;2024-03-22T04:55:43;49.80;;;25.43;;
23802;SDS011;12082;51.786;6.018;2024-03-22T04:58:15;50.30;;;24.87;;
23802;SDS011;12082;51.786;6.018;2024-03-22T05:00:41;48.67;;;25.00;;
23802;SDS011;12082;51.786;6.018;2024-03-22T05:03:08;55.07;;;24.50;;
23802;SDS011;12082;51.786;6.018;2024-03-22T05:05:34;44.70;;;24.63;;
23802;SDS011;12082;51.786;6.018;2024-03-22T05:08:00;44.87;;;25.53;;
23802;SDS011;12082;51.786;6.018;2024-03-22T05:10:26;45.43;;;24.73;;
23802;SDS011;12082;51.786;6.018;2024-03-22T05:12:53;45.90;;;24.23;;
23802;SDS011;12082;51.786;6.018;2024-03-22T05:15:19;45.73;;;24.73;;
23802;SDS011;12082;51.786;6.018;2024-03-22T05:17:45;44.80;;;23.43;;
23802;SDS011;12082;51.786;6.018;2024-03-22T05:20:11;42.00;;;25.33;;
23802;SDS011;12082;51.786;6.018;2024-03-22T05:22:38;45.57;;;24.20;;
23802;SDS011;12082;51.786;6.018;2024-03-22T05:25:04;46.67;;;25.17;;
23802;SDS011;12082;51.786;6.018;2024-03-22T05:27:33;45.80;;;25.03;;
23802;SDS011;12082;51.786;6.018;2024-03-22T05:29:59;48.17;;;24.53;;
23802;SDS011;12082;51.786;6.018;2024-03-22T05:32:25;49.30;;;24.03;;
23802;SDS011;12082;51.786;6.018;2024-03-22T05:34:52;47.53;;;24.90;;
23802;SDS011;12082;51.786;6.018;2024-03-22T05:37:18;43.97;;;23.87;;
23802;SDS011;12082;51.786;6.018;2024-03-22T05:39:44;45.47;;;23.97;;
23802;SDS011;12082;51.786;6.018;2024-03-22T05:42:10;47.60;;;25.10;;
23802;SDS011;12082;51.786;6.018;2024-03-22T05:44:36;46.03;;;23.27;;
23802;SDS011;12082;51.786;6.018;2024-03-22T05:47:02;47.50;;;25.27;;
23802;SDS011;12082;51.786;6.018;2024-03-22T05:49:28;47.53;;;24.63;;
23802;SDS011;12082;51.786;6.018;2024-03-22T05:51:54;43.13;;;24.53;;
23802;SDS011;12082;51.786;6.018;2024-03-22T05:54:20;39.47;;;23.67;;
23802;SDS011;12082;51.786;6.018;2024-03-22T05:56:46;42.47;;;22.47;;
23802;SDS011;12082;51.786;6.018;2024-03-22T05:59:12;45.93;;;24.07;;
23802;SDS011;12082;51.786;6.018;2024-03-22T06:01:38;47.70;;;24.90;;
23802;SDS011;12082;51.786;6.018;2024-03-22T06:04:05;43.53;;;22.83;;
23802;SDS011;12082;51.786;6.018;2024-03-22T06:06:34;47.03;;;24.87;;
23802;SDS011;12082;51.786;6.018;2024-03-22T06:09:01;42.63;;;22.20;;
23802;SDS011;12082;51.786;6.018;2024-03-22T06:11:34;42.90;;;22.13;;
23802;SDS011;12082;51.786;6.018;2024-03-22T06:14:02;37.80;;;22.87;;
23802;SDS011;12082;51.786;6.018;2024-03-22T06:16:27;38.37;;;21.63;;
23802;SDS011;12082;51.786;6.018;2024-03-22T06:18:54;42.53;;;22.10;;
23802;SDS011;12082;51.786;6.018;2024-03-22T06:21:19;48.10;;;24.17;;
23802;SDS011;12082;51.786;6.018;2024-03-22T06:23:49;39.23;;;22.03;;
23802;SDS011;12082;51.786;6.018;2024-03-22T06:26:16;41.60;;;20.60;;
23802;SDS011;12082;51.786;6.018;2024-03-22T06:28:42;39.43;;;22.03;;
23802;SDS011;12082;51.786;6.018;2024-03-22T06:31:08;33.17;;;20.73;;
23802;SDS011;12082;51.786;6.018;2024-03-22T06:33:34;41.30;;;21.40;;
23802;SDS011;12082;51.786;6.018;2024-03-22T06:36:00;43.93;;;21.23;;
23802;SDS011;12082;51.786;6.018;2024-03-22T06:38:26;38.50;;;21.60;;
23802;SDS011;12082;51.786;6.018;2024-03-22T06:40:52;39.87;;;21.07;;
23802;SDS011;12082;51.786;6.018;2024-03-22T06:43:18;38.30;;;21.87;;
23802;SDS011;12082;51.786;6.018;2024-03-22T06:45:44;38.73;;;22.03;;
23802;SDS011;12082;51.786;6.018;2024-03-22T06:48:10;37.90;;;20.07;;
23802;SDS011;12082;51.786;6.018;2024-03-22T06:50:36;40.10;;;19.80;;
23802;SDS011;12082;51.786;6.018;2024-03-22T06:53:02;34.53;;;19.97;;
23802;SDS011;12082;51.786;6.018;2024-03-22T06:55:29;39.80;;;20.37;;
23802;SDS011;12082;51.786;6.018;2024-03-22T06:57:55;36.47;;;20.30;;
23802;SDS011;12082;51.786;6.018;2024-03-22T07:00:21;32.80;;;18.13;;
23802;SDS011;12082;51.786;6.018;2024-03-22T07:02:47;29.90;;;18.63;;
23802;SDS011;12082;51.786;6.018;2024-03-22T07:05:14;30.93;;;18.17;;
23802;SDS011;12082;51.786;6.018;2024-03-22T07:07:40;34.37;;;19.53;;
23802;SDS011;12082;51.786;6.018;2024-03-22T07:10:06;34.73;;;18.50;;
23802;SDS011;12082;51.786;6.018;2024-03-22T07:12:32;32.20;;;18.03;;
23802;SDS011;12082;51.786;6.018;2024-03-22T07:15:01;32.97;;;18.57;;
23802;SDS011;12082;51.786;6.018;2024-03-22T07:17:29;31.43;;;18.57;;
23802;SDS011;12082;51.786;6.018;2024-03-22T07:19:55;30.20;;;17.47;;
23802;SDS011;12082;51.786;6.018;2024-03-22T07:22:22;30.50;;;18.40;;
23802;SDS011;12082;51.786;6.018;2024-03-22T07:24:48;31.07;;;17.50;;
23802;SDS011;12082;51.786;6.018;2024-03-22T07:27:16;36.47;;;17.77;;
23802;SDS011;12082;51.786;6.018;2024-03-22T07:29:42;34.10;;;17.60;;
23802;SDS011;12082;51.786;6.018;2024-03-22T07:32:08;29.77;;;16.93;;
23802;SDS011;12082;51.786;6.018;2024-03-22T07:34:34;30.63;;;17.23;;
23802;SDS011;12082;51.786;6.018;2024-03-22T07:37:00;28.83;;;17.70;;
23802;SDS011;12082;51.786;6.018;2024-03-22T07:39:26;28.87;;;16.70;;
23802;SDS011;12082;51.786;6.018;2024-03-22T07:41:52;28.43;;;16.50;;
23802;SDS011;12082;51.786;6.018;2024-03-22T07:44:18;26.97;;;15.70;;
23802;SDS011;12082;51.786;6.018;2024-03-22T07:46:49;30.00;;;16.17;;
23802;SDS011;12082;51.786;6.018;2024-03-22T07:49:16;23.80;;;14.40;;
23802;SDS011;12082;51.786;6.018;2024-03-22T07:51:42;26.00;;;15.40;;
23802;SDS011;12082;51.786;6.018;2024-03-22T07:54:08;24.50;;;13.43;;
23802;SDS011;12082;51.786;6.018;2024-03-22T07:56:34;23.90;;;15.07;;
23802;SDS011;12082;51.786;6.018;2024-03-22T07:59:00;23.67;;;14.27;;
23802;SDS011;12082;51.786;6.018;2024-03-22T08:01:26;23.00;;;13.77;;
23802;SDS011;12082;51.786;6.018;2024-03-22T08:03:52;27.73;;;14.60;;
23802;SDS011;12082;51.786;6.018;2024-03-22T08:06:18;22.60;;;13.37;;
23802;SDS011;12082;51.786;6.018;2024-03-22T08:08:44;24.00;;;15.27;;
23802;SDS011;12082;51.786;6.018;2024-03-22T08:11:10;25.23;;;14.60;;
23802;SDS011;12082;51.786;6.018;2024-03-22T08:13:36;24.40;;;14.63;;
23802;SDS011;12082;51.786;6.018;2024-03-22T08:16:02;26.97;;;16.50;;
23802;SDS011;12082;51.786;6.018;2024-03-22T08:18:28;23.80;;;15.33;;
23802;SDS011;12082;51.786;6.018;2024-03-22T08:20:54;26.60;;;14.63;;
23802;SDS011;12082;51.786;6.018;2024-03-22T08:23:20;24.33;;;14.63;;
23802;SDS011;12082;51.786;6.018;2024-03-22T08:25:47;25.77;;;14.63;;
23802;SDS011;12082;51.786;6.018;2024-03-22T08:28:14;25.73;;;15.73;;
23802;SDS011;12082;51.786;6.018;2024-03-22T08:30:40;26.20;;;15.53;;
23802;SDS011;12082;51.786;6.018;2024-03-22T08:33:07;27.83;;;16.50;;
23802;SDS011;12082;51.786;6.018;2024-03-22T08:35:33;28.33;;;16.77;;
23802;SDS011;12082;51.786;6.018;2024-03-22T08:37:59;29.33;;;16.87;;
23802;SDS011;12082;51.786;6.018;2024-03-22T08:40:25;29.77;;;18.13;;
23802;SDS011;12082;51.786;6.018;2024-03-22T08:42:52;29.57;;;17.47;;
23802;SDS011;12082;51.786;6.018;2024-03-22T08:45:18;29.80;;;16.97;;
23802;SDS011;12082;51.786;6.018;2024-03-22T08:47:44;29.77;;;15.80;;
23802;SDS011;12082;51.786;6.018;2024-03-22T08:50:13;30.07;;;16.63;;
23802;SDS011;12082;51.786;6.018;2024-03-22T08:52:39;30.73;;;17.27;;
23802;SDS011;12082;51.786;6.018;2024-03-22T08:55:05;30.83;;;18.20;;
23802;SDS011;12082;51.786;6.018;2024-03-22T08:57:32;28.57;;;16.93;;
23802;SDS011;12082;51.786;6.018;2024-03-22T08:59:58;26.77;;;15.53;;
23802;SDS011;12082;51.786;6.018;2024-03-22T09:02:24;25.73;;;16.33;;
23802;SDS011;12082;51.786;6.018;2024-03-22T09:04:50;27.53;;;16.67;;
23802;SDS011;12082;51.786;6.018;2024-03-22T09:07:16;23.93;;;15.30;;
23802;SDS011;12082;51.786;6.018;2024-03-22T09:09:42;30.33;;;16.27;;
23802;SDS011;12082;51.786;6.018;2024-03-22T09:12:08;29.13;;;17.50;;
23802;SDS011;12082;51.786;6.018;2024-03-22T09:14:34;30.17;;;17.83;;
23802;SDS011;12082;51.786;6.018;2024-03-22T09:17:00;27.27;;;16.03;;
23802;SDS011;12082;51.786;6.018;2024-03-22T09:19:26;31.07;;;18.67;;
23802;SDS011;12082;51.786;6.018;2024-03-22T09:21:52;29.60;;;16.63;;
23802;SDS011;12082;51.786;6.018;2024-03-22T09:24:18;29.90;;;17.63;;
23802;SDS011;12082;51.786;6.018;2024-03-22T09:26:45;28.07;;;17.97;;
23802;SDS011;12082;51.786;6.018;2024-03-22T09:29:12;26.90;;;16.53;;
23802;SDS011;12082;51.786;6.018;2024-03-22T09:31:38;29.07;;;17.40;;
23802;SDS011;12082;51.786;6.018;2024-03-22T09:34:04;30.77;;;17.97;;
23802;SDS011;12082;51.786;6.018;2024-03-22T09:36:30;30.33;;;17.50;;
23802;SDS011;12082;51.786;6.018;2024-03-22T09:39:00;25.73;;;16.27;;
23802;SDS011;12082;51.786;6.018;2024-03-22T09:41:26;28.93;;;17.97;;
23802;SDS011;12082;51.786;6.018;2024-03-22T09:43:52;27.57;;;17.13;;
23802;SDS011;12082;51.786;6.018;2024-03-22T09:46:19;31.23;;;18.07;;
23802;SDS011;12082;51.786;6.018;2024-03-22T09:48:48;28.07;;;16.80;;
23802;SDS011;12082;51.786;6.018;2024-03-22T09:51:15;29.70;;;16.53;;
23802;SDS011;12082;51.786;6.018;2024-03-22T09:53:45;32.60;;;18.43;;
23802;SDS011;12082;51.786;6.018;2024-03-22T09:56:13;30.33;;;18.70;;
23802;SDS011;12082;51.786;6.018;2024-03-22T09:58:40;27.97;;;16.80;;
23802;SDS011;12082;51.786;6.018;2024-03-22T10:01:06;33.30;;;17.60;;
23802;SDS011;12082;51.786;6.018;2024-03-22T10:03:33;33.43;;;17.93;;
23802;SDS011;12082;51.786;6.018;2024-03-22T10:05:59;28.93;;;16.80;;
23802;SDS011;12082;51.786;6.018;2024-03-22T10:08:26;35.00;;;17.70;;
23802;SDS011;12082;51.786;6.018;2024-03-22T10:10:52;26.47;;;16.20;;
23802;SDS011;12082;51.786;6.018;2024-03-22T10:13:18;32.30;;;15.73;;
23802;SDS011;12082;51.786;6.018;2024-03-22T10:15:45;30.47;;;16.27;;
23802;SDS011;12082;51.786;6.018;2024-03-22T10:18:11;31.43;;;16.47;;
23802;SDS011;12082;51.786;6.018;2024-03-22T10:20:37;27.07;;;15.17;;
23802;SDS011;12082;51.786;6.018;2024-03-22T10:23:03;26.93;;;15.27;;
23802;SDS011;12082;51.786;6.018;2024-03-22T10:25:29;23.10;;;15.00;;
23802;SDS011;12082;51.786;6.018;2024-03-22T10:27:56;29.67;;;15.50;;
23802;SDS011;12082;51.786;6.018;2024-03-22T10:30:24;23.83;;;15.07;;
23802;SDS011;12082;51.786;6.018;2024-03-22T10:32:50;20.73;;;13.33;;
23802;SDS011;12082;51.786;6.018;2024-03-22T10:35:16;24.63;;;14.23;;
23802;SDS011;12082;51.786;6.018;2024-03-22T10:37:42;24.47;;;13.60;;
23802;SDS011;12082;51.786;6.018;2024-03-22T10:40:08;23.40;;;14.10;;
23802;SDS011;12082;51.786;6.018;2024-03-22T10:42:35;28.57;;;15.73;;
23802;SDS011;12082;51.786;6.018;2024-03-22T10:45:01;29.57;;;16.00;;
23802;SDS011;12082;51.786;6.018;2024-03-22T10:47:29;24.13;;;13.97;;
23802;SDS011;12082;51.786;6.018;2024-03-22T10:49:56;24.77;;;12.77;;
23802;SDS011;12082;51.786;6.018;2024-03-22T10:52:25;27.00;;;13.73;;
23802;SDS011;12082;51.786;6.018;2024-03-22T10:54:51;27.03;;;15.50;;
23802;SDS011;12082;51.786;6.018;2024-03-22T10:57:17;22.70;;;14.90;;
23802;SDS011;12082;51.786;6.018;2024-03-22T10:59:43;26.83;;;14.37;;
23802;SDS011;12082;51.786;6.018;2024-03-22T11:02:11;24.90;;;14.67;;
23802;SDS011;12082;51.786;6.018;2024-03-22T11:04:38;23.93;;;15.27;;
23802;SDS011;12082;51.786;6.018;2024-03-22T11:07:04;22.53;;;13.83;;
23802;SDS011;12082;51.786;6.018;2024-03-22T11:09:30;27.77;;;14.13;;
23802;SDS011;12082;51.786;6.018;2024-03-22T11:11:56;24.90;;;14.30;;
23802;SDS011;12082;51.786;6.018;2024-03-22T11:14:24;23.13;;;13.83;;
23802;SDS011;12082;51.786;6.018;2024-03-22T11:16:50;29.53;;;14.50;;
23802;SDS011;12082;51.786;6.018;2024-03-22T11:19:16;23.87;;;12.70;;
23802;SDS011;12082;51.786;6.018;2024-03-22T11:21:42;25.30;;;14.03;;
23802;SDS011;12082;51.786;6.018;2024-03-22T11:24:08;26.03;;;14.10;;
23802;SDS011;12082;51.786;6.018;2024-03-22T11:26:36;25.30;;;13.20;;
23802;SDS011;12082;51.786;6.018;2024-03-22T11:29:02;22.40;;;14.07;;
23802;SDS011;12082;51.786;6.018;2024-03-22T11:31:28;24.77;;;13.90;;
23802;SDS011;12082;51.786;6.018;2024-03-22T11:33:54;24.10;;;13.20;;
23802;SDS011;12082;51.786;6.018;2024-03-22T11:36:20;19.77;;;12.60;;
23802;SDS011;12082;51.786;6.018;2024-03-22T11:38:46;27.23;;;14.93;;
23802;SDS011;12082;51.786;6.018;2024-03-22T11:41:18;23.50;;;14.03;;
23802;SDS011;12082;51.786;6.018;2024-03-22T11:43:46;23.50;;;13.97;;
23802;SDS011;12082;51.786;6.018;2024-03-22T11:46:13;24.70;;;14.30;;
23802;SDS011;12082;51.786;6.018;2024-03-22T11:48:42;25.23;;;14.10;;
23802;SDS011;12082;51.786;6.018;2024-03-22T11:51:09;24.50;;;14.33;;
23802;SDS011;12082;51.786;6.018;2024-03-22T11:53:35;27.53;;;15.20;;
23802;SDS011;12082;51.786;6.018;2024-03-22T11:56:04;33.17;;;16.93;;
23802;SDS011;12082;51.786;6.018;2024-03-22T11:58:30;23.83;;;15.20;;
23802;SDS011;12082;51.786;6.018;2024-03-22T12:00:56;25.97;;;14.83;;
23802;SDS011;12082;51.786;6.018;2024-03-22T12:03:23;26.77;;;15.97;;
23802;SDS011;12082;51.786;6.018;2024-03-22T12:05:49;28.17;;;15.53;;
23802;SDS011;12082;51.786;6.018;2024-03-22T12:08:16;26.27;;;14.90;;
23802;SDS011;12082;51.786;6.018;2024-03-22T12:10:42;34.80;;;16.33;;
23802;SDS011;12082;51.786;6.018;2024-03-22T12:13:08;35.77;;;16.23;;
23802;SDS011;12082;51.786;6.018;2024-03-22T12:15:34;30.00;;;15.77;;
23802;SDS011;12082;51.786;6.018;2024-03-22T12:18:01;25.50;;;13.20;;
23802;SDS011;12082;51.786;6.018;2024-03-22T12:20:27;21.43;;;12.10;;
23802;SDS011;12082;51.786;6.018;2024-03-22T12:22:52;23.50;;;14.00;;
23802;SDS011;12082;51.786;6.018;2024-03-22T12:25:18;25.43;;;13.13;;
23802;SDS011;12082;51.786;6.018;2024-03-22T12:27:46;27.40;;;14.63;;
23802;SDS011;12082;51.786;6.018;2024-03-22T12:30:12;23.10;;;13.80;;
23802;SDS011;12082;51.786;6.018;2024-03-22T12:32:38;23.17;;;12.70;;
23802;SDS011;12082;51.786;6.018;2024-03-22T12:35:04;22.50;;;12.33;;
23802;SDS011;12082;51.786;6.018;2024-03-22T12:37:31;18.93;;;12.03;;
23802;SDS011;12082;51.786;6.018;2024-03-22T12:39:57;20.40;;;12.77;;
23802;SDS011;12082;51.786;6.018;2024-03-22T12:42:23;17.60;;;10.93;;
23802;SDS011;12082;51.786;6.018;2024-03-22T12:44:49;22.00;;;12.10;;
23802;SDS011;12082;51.786;6.018;2024-03-22T12:47:15;20.00;;;10.80;;
23802;SDS011;12082;51.786;6.018;2024-03-22T12:49:41;18.80;;;10.97;;
23802;SDS011;12082;51.786;6.018;2024-03-22T12:52:07;20.03;;;10.90;;
23802;SDS011;12082;51.786;6.018;2024-03-22T12:54:33;20.80;;;11.03;;
23802;SDS011;12082;51.786;6.018;2024-03-22T12:56:59;16.47;;;9.70;;
23802;SDS011;12082;51.786;6.018;2024-03-22T12:59:25;15.43;;;9.83;;
23802;SDS011;12082;51.786;6.018;2024-03-22T13:01:51;13.90;;;9.13;;
23802;SDS011;12082;51.786;6.018;2024-03-22T13:04:18;16.47;;;10.00;;
23802;SDS011;12082;51.786;6.018;2024-03-22T13:06:44;16.37;;;9.67;;
23802;SDS011;12082;51.786;6.018;2024-03-22T13:09:10;14.87;;;9.13;;
23802;SDS011;12082;51.786;6.018;2024-03-22T13:11:37;16.13;;;9.77;;
23802;SDS011;12082;51.786;6.018;2024-03-22T13:14:06;16.47;;;11.03;;
23802;SDS011;12082;51.786;6.018;2024-03-22T13:16:32;13.80;;;9.03;;
23802;SDS011;12082;51.786;6.018;2024-03-22T13:18:58;13.20;;;8.37;;
23802;SDS011;12082;51.786;6.018;2024-03-22T13:21:24;17.87;;;8.57;;
23802;SDS011;12082;51.786;6.018;2024-03-22T13:23:52;15.70;;;9.07;;
23802;SDS011;12082;51.786;6.018;2024-03-22T13:26:18;14.93;;;8.97;;
23802;SDS011;12082;51.786;6.018;2024-03-22T13:28:44;14.43;;;9.33;;
23802;SDS011;12082;51.786;6.018;2024-03-22T13:31:11;14.13;;;9.43;;
23802;SDS011;12082;51.786;6.018;2024-03-22T13:33:37;13.27;;;8.53;;
23802;SDS011;12082;51.786;6.018;2024-03-22T13:36:06;15.13;;;10.10;;
23802;SDS011;12082;51.786;6.018;2024-03-22T13:38:32;15.67;;;8.80;;
23802;SDS011;12082;51.786;6.018;2024-03-22T13:40:58;13.40;;;9.03;;
23802;SDS011;12082;51.786;6.018;2024-03-22T13:43:25;14.27;;;9.23;;
23802;SDS011;12082;51.786;6.018;2024-03-22T13:45:52;12.03;;;8.50;;
23802;SDS011;12082;51.786;6.018;2024-03-22T13:48:22;15.93;;;9.47;;
23802;SDS011;12082;51.786;6.018;2024-03-22T13:50:49;14.10;;;9.60;;
23802;SDS011;12082;51.786;6.018;2024-03-22T13:53:15;13.07;;;8.03;;
23802;SDS011;12082;51.786;6.018;2024-03-22T13:55:42;16.07;;;9.13;;
23802;SDS011;12082;51.786;6.018;2024-03-22T13:58:08;11.60;;;8.50;;
23802;SDS011;12082;51.786;6.018;2024-03-22T14:00:34;16.23;;;9.60;;
23802;SDS011;12082;51.786;6.018;2024-03-22T14:03:01;11.43;;;8.03;;
23802;SDS011;12082;51.786;6.018;2024-03-22T14:05:27;15.80;;;8.37;;
23802;SDS011;12082;51.786;6.018;2024-03-22T14:07:54;15.60;;;9.50;;
23802;SDS011;12082;51.786;6.018;2024-03-22T14:10:19;9.83;;;6.87;;
23802;SDS011;12082;51.786;6.018;2024-03-22T14:12:45;9.73;;;6.43;;
23802;SDS011;12082;51.786;6.018;2024-03-22T14:15:12;7.60;;;5.70;;
23802;SDS011;12082;51.786;6.018;2024-03-22T14:17:38;6.67;;;5.57;;